sensor_id;sensor_type;location;lat;lon;timestamp;temperature;humidity
65044;DHT22;51617;48.158;16.464;2023-04-03T00:00:28;7.50;88.60
65044;DHT22;51617;48.158;16.464;2023-04-03T00:02:54;7.50;88.60
65044;DHT22;51617;48.158;16.464;2023-04-03T00:05:19;7.50;88.30
65044;DHT22;51617;48.158;16.464;2023-04-03T00:07:45;7.50;88.50
65044;DHT22;51617;48.158;16.464;2023-04-03T00:10:11;7.60;88.40
65044;DHT22;51617;48.158;16.464;2023-04-03T00:12:37;7.50;88.50
65044;DHT22;51617;48.158;16.464;2023-04-03T00:15:02;7.50;88.80
65044;DHT22;51617;48.158;16.464;2023-04-03T00:17:28;7.50;88.90
65044;DHT22;51617;48.158;16.464;2023-04-03T00:19:53;7.50;88.90
65044;DHT22;51617;48.158;16.464;2023-04-03T00:22:19;7.50;88.80
65044;DHT22;51617;48.158;16.464;2023-04-03T00:24:44;7.50;89.30
65044;DHT22;51617;48.158;16.464;2023-04-03T00:27:10;7.50;89.20
65044;DHT22;51617;48.158;16.464;2023-04-03T00:29:36;7.50;89.30
65044;DHT22;51617;48.158;16.464;2023-04-03T00:32:02;7.50;89.20
65044;DHT22;51617;48.158;16.464;2023-04-03T00:34:27;7.50;89.20
65044;DHT22;51617;48.158;16.464;2023-04-03T00:36:53;7.50;89.40
65044;DHT22;51617;48.158;16.464;2023-04-03T00:39:19;7.50;89.30
65044;DHT22;51617;48.158;16.464;2023-04-03T00:41:44;7.50;89.60
65044;DHT22;51617;48.158;16.464;2023-04-03T00:44:23;7.40;89.80
65044;DHT22;51617;48.158;16.464;2023-04-03T00:47:08;7.50;89.60
65044;DHT22;51617;48.158;16.464;2023-04-03T00:49:34;7.50;89.60
65044;DHT22;51617;48.158;16.464;2023-04-03T00:52:01;7.50;89.90
65044;DHT22;51617;48.158;16.464;2023-04-03T00:54:26;7.40;90.00
65044;DHT22;51617;48.158;16.464;2023-04-03T00:56:52;7.40;90.00
65044;DHT22;51617;48.158;16.464;2023-04-03T00:59:21;7.40;90.10
65044;DHT22;51617;48.158;16.464;2023-04-03T01:01:48;7.50;89.90
65044;DHT22;51617;48.158;16.464;2023-04-03T01:07:12;7.50;90.00
65044;DHT22;51617;48.158;16.464;2023-04-03T01:09:39;7.50;90.00
65044;DHT22;51617;48.158;16.464;2023-04-03T01:14:41;7.40;90.00
65044;DHT22;51617;48.158;16.464;2023-04-03T01:19:52;7.40;90.20
65044;DHT22;51617;48.158;16.464;2023-04-03T01:22:26;7.30;90.40
65044;DHT22;51617;48.158;16.464;2023-04-03T01:24:56;7.40;90.50
65044;DHT22;51617;48.158;16.464;2023-04-03T01:27:22;7.30;90.40
65044;DHT22;51617;48.158;16.464;2023-04-03T01:29:47;7.40;90.50
65044;DHT22;51617;48.158;16.464;2023-04-03T01:32:13;7.30;90.50
65044;DHT22;51617;48.158;16.464;2023-04-03T01:34:38;7.30;90.60
65044;DHT22;51617;48.158;16.464;2023-04-03T01:37:04;7.30;90.60
65044;DHT22;51617;48.158;16.464;2023-04-03T01:39:29;7.30;90.60
65044;DHT22;51617;48.158;16.464;2023-04-03T01:41:55;7.30;90.70
65044;DHT22;51617;48.158;16.464;2023-04-03T01:44:20;7.30;90.60
65044;DHT22;51617;48.158;16.464;2023-04-03T01:46:46;7.30;90.70
65044;DHT22;51617;48.158;16.464;2023-04-03T01:49:11;7.40;90.60
65044;DHT22;51617;48.158;16.464;2023-04-03T01:51:37;7.40;90.60
65044;DHT22;51617;48.158;16.464;2023-04-03T01:54:03;7.40;90.70
65044;DHT22;51617;48.158;16.464;2023-04-03T01:56:28;7.40;90.50
65044;DHT22;51617;48.158;16.464;2023-04-03T01:58:54;7.40;90.50
65044;DHT22;51617;48.158;16.464;2023-04-03T02:01:19;7.40;90.60
65044;DHT22;51617;48.158;16.464;2023-04-03T02:03:45;7.50;90.60
65044;DHT22;51617;48.158;16.464;2023-04-03T02:06:10;7.40;90.60
65044;DHT22;51617;48.158;16.464;2023-04-03T02:08:36;7.50;90.50
65044;DHT22;51617;48.158;16.464;2023-04-03T02:11:02;7.40;90.40
65044;DHT22;51617;48.158;16.464;2023-04-03T02:13:27;7.40;90.40
65044;DHT22;51617;48.158;16.464;2023-04-03T02:15:53;7.30;90.40
65044;DHT22;51617;48.158;16.464;2023-04-03T02:18:18;7.30;90.60
65044;DHT22;51617;48.158;16.464;2023-04-03T02:20:44;7.30;90.60
65044;DHT22;51617;48.158;16.464;2023-04-03T02:23:09;7.30;90.60
65044;DHT22;51617;48.158;16.464;2023-04-03T02:25:35;7.30;90.60
65044;DHT22;51617;48.158;16.464;2023-04-03T02:28:00;7.30;90.50
65044;DHT22;51617;48.158;16.464;2023-04-03T02:30:26;7.30;90.80
65044;DHT22;51617;48.158;16.464;2023-04-03T02:32:52;7.30;90.40
65044;DHT22;51617;48.158;16.464;2023-04-03T02:35:17;7.30;90.40
65044;DHT22;51617;48.158;16.464;2023-04-03T02:37:43;7.20;90.40
65044;DHT22;51617;48.158;16.464;2023-04-03T02:40:08;7.20;90.50
65044;DHT22;51617;48.158;16.464;2023-04-03T02:42:34;7.20;90.40
65044;DHT22;51617;48.158;16.464;2023-04-03T02:45:00;7.30;90.50
65044;DHT22;51617;48.158;16.464;2023-04-03T02:47:26;7.20;90.20
65044;DHT22;51617;48.158;16.464;2023-04-03T02:49:52;7.20;90.20
65044;DHT22;51617;48.158;16.464;2023-04-03T02:52:18;7.20;90.40
65044;DHT22;51617;48.158;16.464;2023-04-03T02:54:43;7.20;90.20
65044;DHT22;51617;48.158;16.464;2023-04-03T02:57:09;7.10;90.10
65044;DHT22;51617;48.158;16.464;2023-04-03T02:59:37;7.10;90.10
65044;DHT22;51617;48.158;16.464;2023-04-03T03:02:08;7.10;90.20
65044;DHT22;51617;48.158;16.464;2023-04-03T03:04:34;7.10;90.40
65044;DHT22;51617;48.158;16.464;2023-04-03T03:07:00;7.10;90.10
65044;DHT22;51617;48.158;16.464;2023-04-03T03:09:26;7.10;90.20
65044;DHT22;51617;48.158;16.464;2023-04-03T03:11:52;7.10;90.50
65044;DHT22;51617;48.158;16.464;2023-04-03T03:14:17;7.00;90.40
65044;DHT22;51617;48.158;16.464;2023-04-03T03:16:43;7.00;90.40
65044;DHT22;51617;48.158;16.464;2023-04-03T03:19:08;7.00;90.60
65044;DHT22;51617;48.158;16.464;2023-04-03T03:21:34;7.00;90.80
65044;DHT22;51617;48.158;16.464;2023-04-03T03:24:00;7.00;91.20
65044;DHT22;51617;48.158;16.464;2023-04-03T03:26:25;7.00;91.30
65044;DHT22;51617;48.158;16.464;2023-04-03T03:28:51;7.10;91.10
65044;DHT22;51617;48.158;16.464;2023-04-03T03:31:18;7.00;90.90
65044;DHT22;51617;48.158;16.464;2023-04-03T03:33:44;7.00;90.90
65044;DHT22;51617;48.158;16.464;2023-04-03T03:36:09;6.90;91.30
65044;DHT22;51617;48.158;16.464;2023-04-03T03:38:36;7.00;91.20
65044;DHT22;51617;48.158;16.464;2023-04-03T03:41:01;7.00;91.20
65044;DHT22;51617;48.158;16.464;2023-04-03T03:43:27;7.00;91.30
65044;DHT22;51617;48.158;16.464;2023-04-03T03:45:53;7.10;91.10
65044;DHT22;51617;48.158;16.464;2023-04-03T03:48:19;7.10;91.00
65044;DHT22;51617;48.158;16.464;2023-04-03T03:50:44;7.10;90.80
65044;DHT22;51617;48.158;16.464;2023-04-03T03:53:10;7.10;90.60
65044;DHT22;51617;48.158;16.464;2023-04-03T03:55:36;7.10;90.60
65044;DHT22;51617;48.158;16.464;2023-04-03T03:58:01;7.10;90.30
65044;DHT22;51617;48.158;16.464;2023-04-03T04:00:27;7.00;90.10
65044;DHT22;51617;48.158;16.464;2023-04-03T04:02:52;7.00;90.00
65044;DHT22;51617;48.158;16.464;2023-04-03T04:05:18;7.00;89.90
65044;DHT22;51617;48.158;16.464;2023-04-03T04:07:43;7.00;90.10
65044;DHT22;51617;48.158;16.464;2023-04-03T04:10:09;7.10;90.00
65044;DHT22;51617;48.158;16.464;2023-04-03T04:12:35;7.00;90.00
65044;DHT22;51617;48.158;16.464;2023-04-03T04:15:01;6.90;90.10
65044;DHT22;51617;48.158;16.464;2023-04-03T04:17:26;7.00;90.30
65044;DHT22;51617;48.158;16.464;2023-04-03T04:19:52;7.00;90.40
65044;DHT22;51617;48.158;16.464;2023-04-03T04:22:17;7.00;90.40
65044;DHT22;51617;48.158;16.464;2023-04-03T04:24:43;7.10;90.30
65044;DHT22;51617;48.158;16.464;2023-04-03T04:27:09;7.00;90.40
65044;DHT22;51617;48.158;16.464;2023-04-03T04:29:34;7.00;90.40
65044;DHT22;51617;48.158;16.464;2023-04-03T04:32:02;7.00;90.40
65044;DHT22;51617;48.158;16.464;2023-04-03T04:34:28;6.90;90.50
65044;DHT22;51617;48.158;16.464;2023-04-03T04:36:53;6.90;90.60
65044;DHT22;51617;48.158;16.464;2023-04-03T04:39:19;6.90;90.70
65044;DHT22;51617;48.158;16.464;2023-04-03T04:41:44;6.90;90.80
65044;DHT22;51617;48.158;16.464;2023-04-03T04:44:10;7.00;90.80
65044;DHT22;51617;48.158;16.464;2023-04-03T04:46:35;7.00;90.80
65044;DHT22;51617;48.158;16.464;2023-04-03T04:49:01;7.00;90.90
65044;DHT22;51617;48.158;16.464;2023-04-03T04:51:26;7.00;90.80
65044;DHT22;51617;48.158;16.464;2023-04-03T04:53:52;6.90;90.90
65044;DHT22;51617;48.158;16.464;2023-04-03T04:56:17;6.90;90.90
65044;DHT22;51617;48.158;16.464;2023-04-03T04:58:43;6.90;90.70
65044;DHT22;51617;48.158;16.464;2023-04-03T05:01:09;6.90;90.80
65044;DHT22;51617;48.158;16.464;2023-04-03T05:03:36;7.00;90.90
65044;DHT22;51617;48.158;16.464;2023-04-03T05:06:02;6.90;91.00
65044;DHT22;51617;48.158;16.464;2023-04-03T05:08:27;6.90;91.20
65044;DHT22;51617;48.158;16.464;2023-04-03T05:10:53;6.90;91.20
65044;DHT22;51617;48.158;16.464;2023-04-03T05:13:19;6.90;91.30
65044;DHT22;51617;48.158;16.464;2023-04-03T05:15:45;6.80;91.40
65044;DHT22;51617;48.158;16.464;2023-04-03T05:18:11;6.90;91.60
65044;DHT22;51617;48.158;16.464;2023-04-03T05:20:36;6.90;91.20
65044;DHT22;51617;48.158;16.464;2023-04-03T05:23:02;6.80;91.30
65044;DHT22;51617;48.158;16.464;2023-04-03T05:25:28;6.90;91.30
65044;DHT22;51617;48.158;16.464;2023-04-03T05:27:53;6.80;91.20
65044;DHT22;51617;48.158;16.464;2023-04-03T05:30:19;6.80;90.90
65044;DHT22;51617;48.158;16.464;2023-04-03T05:32:44;6.80;90.80
65044;DHT22;51617;48.158;16.464;2023-04-03T05:35:10;6.70;90.50
65044;DHT22;51617;48.158;16.464;2023-04-03T05:37:36;6.70;90.40
65044;DHT22;51617;48.158;16.464;2023-04-03T05:40:02;6.70;90.50
65044;DHT22;51617;48.158;16.464;2023-04-03T05:42:28;6.80;90.40
65044;DHT22;51617;48.158;16.464;2023-04-03T05:44:54;6.80;90.40
65044;DHT22;51617;48.158;16.464;2023-04-03T05:47:19;6.90;90.50
65044;DHT22;51617;48.158;16.464;2023-04-03T05:49:45;6.90;90.40
65044;DHT22;51617;48.158;16.464;2023-04-03T05:52:20;7.00;90.30
65044;DHT22;51617;48.158;16.464;2023-04-03T05:54:46;6.90;90.60
65044;DHT22;51617;48.158;16.464;2023-04-03T05:57:14;6.90;90.60
65044;DHT22;51617;48.158;16.464;2023-04-03T05:59:39;6.90;90.70
65044;DHT22;51617;48.158;16.464;2023-04-03T06:02:05;7.00;90.90
65044;DHT22;51617;48.158;16.464;2023-04-03T06:04:31;7.00;90.90
65044;DHT22;51617;48.158;16.464;2023-04-03T06:06:57;7.00;90.40
65044;DHT22;51617;48.158;16.464;2023-04-03T06:09:24;6.90;89.70
65044;DHT22;51617;48.158;16.464;2023-04-03T06:11:50;6.80;90.00
65044;DHT22;51617;48.158;16.464;2023-04-03T06:14:15;6.80;90.10
65044;DHT22;51617;48.158;16.464;2023-04-03T06:16:41;6.70;89.70
65044;DHT22;51617;48.158;16.464;2023-04-03T06:19:07;6.70;90.00
65044;DHT22;51617;48.158;16.464;2023-04-03T06:21:33;6.80;89.60
65044;DHT22;51617;48.158;16.464;2023-04-03T06:23:59;6.80;89.80
65044;DHT22;51617;48.158;16.464;2023-04-03T06:26:24;6.80;88.40
65044;DHT22;51617;48.158;16.464;2023-04-03T06:28:50;6.80;88.50
65044;DHT22;51617;48.158;16.464;2023-04-03T06:31:15;6.90;89.10
65044;DHT22;51617;48.158;16.464;2023-04-03T06:33:42;6.80;88.40
65044;DHT22;51617;48.158;16.464;2023-04-03T06:36:09;6.80;88.30
65044;DHT22;51617;48.158;16.464;2023-04-03T06:38:35;6.80;87.50
65044;DHT22;51617;48.158;16.464;2023-04-03T06:41:01;6.70;88.30
65044;DHT22;51617;48.158;16.464;2023-04-03T06:43:26;6.70;88.10
65044;DHT22;51617;48.158;16.464;2023-04-03T06:45:52;6.70;88.60
65044;DHT22;51617;48.158;16.464;2023-04-03T06:48:17;6.70;88.10
65044;DHT22;51617;48.158;16.464;2023-04-03T06:50:43;6.60;88.10
65044;DHT22;51617;48.158;16.464;2023-04-03T06:53:09;6.60;88.30
65044;DHT22;51617;48.158;16.464;2023-04-03T06:55:34;6.60;88.70
65044;DHT22;51617;48.158;16.464;2023-04-03T06:58:01;6.60;88.30
65044;DHT22;51617;48.158;16.464;2023-04-03T07:00:26;6.60;88.00
65044;DHT22;51617;48.158;16.464;2023-04-03T07:02:52;6.60;87.90
65044;DHT22;51617;48.158;16.464;2023-04-03T07:05:19;6.60;87.60
65044;DHT22;51617;48.158;16.464;2023-04-03T07:07:45;6.60;87.30
65044;DHT22;51617;48.158;16.464;2023-04-03T07:10:11;6.70;87.10
65044;DHT22;51617;48.158;16.464;2023-04-03T07:12:36;6.70;85.50
65044;DHT22;51617;48.158;16.464;2023-04-03T07:15:03;6.60;85.60
65044;DHT22;51617;48.158;16.464;2023-04-03T07:17:29;6.60;85.90
65044;DHT22;51617;48.158;16.464;2023-04-03T07:19:54;6.60;85.60
65044;DHT22;51617;48.158;16.464;2023-04-03T07:22:20;6.60;85.10
65044;DHT22;51617;48.158;16.464;2023-04-03T07:24:46;6.60;85.10
65044;DHT22;51617;48.158;16.464;2023-04-03T07:27:11;6.60;85.40
65044;DHT22;51617;48.158;16.464;2023-04-03T07:29:38;6.60;85.50
65044;DHT22;51617;48.158;16.464;2023-04-03T07:32:04;6.70;85.00
65044;DHT22;51617;48.158;16.464;2023-04-03T07:34:31;6.80;84.60
65044;DHT22;51617;48.158;16.464;2023-04-03T07:36:58;6.80;84.00
65044;DHT22;51617;48.158;16.464;2023-04-03T07:39:23;6.80;84.10
65044;DHT22;51617;48.158;16.464;2023-04-03T07:41:49;6.80;84.20
65044;DHT22;51617;48.158;16.464;2023-04-03T07:44:15;6.90;84.00
65044;DHT22;51617;48.158;16.464;2023-04-03T07:46:40;7.00;83.90
65044;DHT22;51617;48.158;16.464;2023-04-03T07:49:07;7.20;83.90
65044;DHT22;51617;48.158;16.464;2023-04-03T07:51:33;7.10;82.70
65044;DHT22;51617;48.158;16.464;2023-04-03T07:53:59;7.20;82.80
65044;DHT22;51617;48.158;16.464;2023-04-03T07:56:24;7.20;82.90
65044;DHT22;51617;48.158;16.464;2023-04-03T07:58:50;7.20;82.80
65044;DHT22;51617;48.158;16.464;2023-04-03T08:01:16;7.10;82.00
65044;DHT22;51617;48.158;16.464;2023-04-03T08:03:41;7.00;81.90
65044;DHT22;51617;48.158;16.464;2023-04-03T08:06:07;7.10;82.30
65044;DHT22;51617;48.158;16.464;2023-04-03T08:08:33;7.20;81.50
65044;DHT22;51617;48.158;16.464;2023-04-03T08:11:00;7.20;81.60
65044;DHT22;51617;48.158;16.464;2023-04-03T08:13:26;7.30;81.20
65044;DHT22;51617;48.158;16.464;2023-04-03T08:15:51;7.40;80.60
65044;DHT22;51617;48.158;16.464;2023-04-03T08:18:17;7.30;80.10
65044;DHT22;51617;48.158;16.464;2023-04-03T08:20:43;7.30;80.20
65044;DHT22;51617;48.158;16.464;2023-04-03T08:23:10;7.30;80.80
65044;DHT22;51617;48.158;16.464;2023-04-03T08:25:39;7.40;81.60
65044;DHT22;51617;48.158;16.464;2023-04-03T08:28:04;7.50;80.50
65044;DHT22;51617;48.158;16.464;2023-04-03T08:30:30;7.60;79.70
65044;DHT22;51617;48.158;16.464;2023-04-03T08:32:56;7.60;79.10
65044;DHT22;51617;48.158;16.464;2023-04-03T08:35:21;7.50;79.00
65044;DHT22;51617;48.158;16.464;2023-04-03T08:37:47;7.60;78.60
65044;DHT22;51617;48.158;16.464;2023-04-03T08:40:14;7.80;79.00
65044;DHT22;51617;48.158;16.464;2023-04-03T08:45:22;8.00;77.10
65044;DHT22;51617;48.158;16.464;2023-04-03T08:48:00;7.90;75.80
65044;DHT22;51617;48.158;16.464;2023-04-03T08:50:30;7.80;75.70
65044;DHT22;51617;48.158;16.464;2023-04-03T08:52:57;7.80;75.80
65044;DHT22;51617;48.158;16.464;2023-04-03T08:55:25;7.70;76.00
65044;DHT22;51617;48.158;16.464;2023-04-03T08:57:53;7.80;76.10
65044;DHT22;51617;48.158;16.464;2023-04-03T09:00:23;7.80;75.20
65044;DHT22;51617;48.158;16.464;2023-04-03T09:02:57;8.00;75.60
65044;DHT22;51617;48.158;16.464;2023-04-03T09:05:29;8.00;75.50
65044;DHT22;51617;48.158;16.464;2023-04-03T09:08:03;8.00;75.60
65044;DHT22;51617;48.158;16.464;2023-04-03T09:10:30;7.90;73.60
65044;DHT22;51617;48.158;16.464;2023-04-03T09:13:40;7.90;76.20
65044;DHT22;51617;48.158;16.464;2023-04-03T09:15:46;7.90;76.10
65044;DHT22;51617;48.158;16.464;2023-04-03T09:23:09;8.20;72.20
65044;DHT22;51617;48.158;16.464;2023-04-03T09:25:38;8.20;71.60
65044;DHT22;51617;48.158;16.464;2023-04-03T09:28:04;8.20;71.20
65044;DHT22;51617;48.158;16.464;2023-04-03T09:30:35;8.20;71.20
65044;DHT22;51617;48.158;16.464;2023-04-03T09:33:01;8.20;70.60
65044;DHT22;51617;48.158;16.464;2023-04-03T09:35:28;8.10;70.00
65044;DHT22;51617;48.158;16.464;2023-04-03T09:37:59;8.00;70.30
65044;DHT22;51617;48.158;16.464;2023-04-03T09:42:54;7.80;70.40
65044;DHT22;51617;48.158;16.464;2023-04-03T09:45:30;7.80;70.60
65044;DHT22;51617;48.158;16.464;2023-04-03T09:50:38;7.60;71.20
65044;DHT22;51617;48.158;16.464;2023-04-03T09:53:04;7.50;71.50
65044;DHT22;51617;48.158;16.464;2023-04-03T09:55:31;7.40;71.70
65044;DHT22;51617;48.158;16.464;2023-04-03T09:57:57;7.40;69.80
65044;DHT22;51617;48.158;16.464;2023-04-03T10:00:24;7.30;69.90
65044;DHT22;51617;48.158;16.464;2023-04-03T10:02:51;7.30;69.70
65044;DHT22;51617;48.158;16.464;2023-04-03T10:05:30;7.40;69.20
65044;DHT22;51617;48.158;16.464;2023-04-03T10:08:38;7.20;69.00
65044;DHT22;51617;48.158;16.464;2023-04-03T10:10:46;7.20;69.20
65044;DHT22;51617;48.158;16.464;2023-04-03T10:13:13;7.30;69.50
65044;DHT22;51617;48.158;16.464;2023-04-03T10:15:41;7.20;68.80
65044;DHT22;51617;48.158;16.464;2023-04-03T10:18:26;7.30;69.30
65044;DHT22;51617;48.158;16.464;2023-04-03T10:20:53;7.20;69.30
65044;DHT22;51617;48.158;16.464;2023-04-03T10:23:24;7.40;69.70
65044;DHT22;51617;48.158;16.464;2023-04-03T10:34:13;7.60;67.30
65044;DHT22;51617;48.158;16.464;2023-04-03T10:37:06;7.50;68.40
65044;DHT22;51617;48.158;16.464;2023-04-03T10:42:05;7.70;66.80
65044;DHT22;51617;48.158;16.464;2023-04-03T10:47:28;7.80;65.20
65044;DHT22;51617;48.158;16.464;2023-04-03T10:52:43;8.10;64.40
65044;DHT22;51617;48.158;16.464;2023-04-03T10:58:13;8.40;63.90
65044;DHT22;51617;48.158;16.464;2023-04-03T11:00:43;8.40;62.50
65044;DHT22;51617;48.158;16.464;2023-04-03T11:03:12;8.40;62.70
65044;DHT22;51617;48.158;16.464;2023-04-03T11:05:43;8.30;62.80
65044;DHT22;51617;48.158;16.464;2023-04-03T11:08:11;8.00;62.60
65044;DHT22;51617;48.158;16.464;2023-04-03T11:10:45;7.70;62.20
65044;DHT22;51617;48.158;16.464;2023-04-03T11:13:22;7.70;62.00
65044;DHT22;51617;48.158;16.464;2023-04-03T11:15:50;7.80;61.70
65044;DHT22;51617;48.158;16.464;2023-04-03T11:18:19;7.70;61.60
65044;DHT22;51617;48.158;16.464;2023-04-03T11:20:50;7.70;62.00
65044;DHT22;51617;48.158;16.464;2023-04-03T11:23:22;7.90;63.30
65044;DHT22;51617;48.158;16.464;2023-04-03T11:25:51;8.10;64.90
65044;DHT22;51617;48.158;16.464;2023-04-03T11:28:18;7.90;64.10
65044;DHT22;51617;48.158;16.464;2023-04-03T11:30:48;7.70;63.90
65044;DHT22;51617;48.158;16.464;2023-04-03T11:33:18;7.60;63.60
65044;DHT22;51617;48.158;16.464;2023-04-03T11:35:47;7.40;63.50
65044;DHT22;51617;48.158;16.464;2023-04-03T11:38:17;7.50;64.70
65044;DHT22;51617;48.158;16.464;2023-04-03T11:40:44;7.70;63.40
65044;DHT22;51617;48.158;16.464;2023-04-03T11:43:24;7.70;62.80
65044;DHT22;51617;48.158;16.464;2023-04-03T11:46:09;7.80;62.50
65044;DHT22;51617;48.158;16.464;2023-04-03T11:53:36;8.10;58.00
65044;DHT22;51617;48.158;16.464;2023-04-03T11:58:32;8.40;59.80
65044;DHT22;51617;48.158;16.464;2023-04-03T12:01:10;8.30;59.80
65044;DHT22;51617;48.158;16.464;2023-04-03T12:16:04;7.70;60.00
65044;DHT22;51617;48.158;16.464;2023-04-03T12:20:59;7.70;60.20
65044;DHT22;51617;48.158;16.464;2023-04-03T12:23:26;7.80;60.60
65044;DHT22;51617;48.158;16.464;2023-04-03T12:25:51;7.80;60.40
65044;DHT22;51617;48.158;16.464;2023-04-03T12:28:24;7.80;60.40
65044;DHT22;51617;48.158;16.464;2023-04-03T12:30:49;7.90;60.00
65044;DHT22;51617;48.158;16.464;2023-04-03T12:34:00;8.00;60.90
65044;DHT22;51617;48.158;16.464;2023-04-03T12:36:07;7.90;60.20
65044;DHT22;51617;48.158;16.464;2023-04-03T12:38:41;7.80;59.20
65044;DHT22;51617;48.158;16.464;2023-04-03T12:41:27;7.80;58.80
65044;DHT22;51617;48.158;16.464;2023-04-03T12:46:37;7.70;58.70
65044;DHT22;51617;48.158;16.464;2023-04-03T12:49:12;7.70;59.20
65044;DHT22;51617;48.158;16.464;2023-04-03T12:51:41;7.70;59.10
65044;DHT22;51617;48.158;16.464;2023-04-03T12:56:39;8.00;56.30
65044;DHT22;51617;48.158;16.464;2023-04-03T13:01:39;8.00;55.60
65044;DHT22;51617;48.158;16.464;2023-04-03T13:04:05;8.00;55.60
65044;DHT22;51617;48.158;16.464;2023-04-03T13:06:38;7.90;56.30
65044;DHT22;51617;48.158;16.464;2023-04-03T13:09:04;7.90;57.00
65044;DHT22;51617;48.158;16.464;2023-04-03T13:11:32;7.70;57.20
65044;DHT22;51617;48.158;16.464;2023-04-03T13:14:03;7.70;57.90
65044;DHT22;51617;48.158;16.464;2023-04-03T13:16:31;7.60;57.20
65044;DHT22;51617;48.158;16.464;2023-04-03T13:18:57;7.60;58.40
65044;DHT22;51617;48.158;16.464;2023-04-03T13:21:26;7.60;56.80
65044;DHT22;51617;48.158;16.464;2023-04-03T13:24:00;7.60;57.50
65044;DHT22;51617;48.158;16.464;2023-04-03T13:26:30;7.60;57.80
65044;DHT22;51617;48.158;16.464;2023-04-03T13:28:57;7.70;57.70
65044;DHT22;51617;48.158;16.464;2023-04-03T13:31:28;7.80;58.00
65044;DHT22;51617;48.158;16.464;2023-04-03T13:34:02;7.90;57.10
65044;DHT22;51617;48.158;16.464;2023-04-03T13:36:32;8.00;57.50
65044;DHT22;51617;48.158;16.464;2023-04-03T13:41:26;7.70;58.20
65044;DHT22;51617;48.158;16.464;2023-04-03T13:43:54;7.70;58.30
65044;DHT22;51617;48.158;16.464;2023-04-03T13:48:46;7.80;57.80
65044;DHT22;51617;48.158;16.464;2023-04-03T13:53:45;7.80;59.00
65044;DHT22;51617;48.158;16.464;2023-04-03T13:56:30;7.80;58.50
65044;DHT22;51617;48.158;16.464;2023-04-03T13:58:57;7.90;58.60
65044;DHT22;51617;48.158;16.464;2023-04-03T14:01:23;8.00;58.80
65044;DHT22;51617;48.158;16.464;2023-04-03T14:06:17;7.80;58.10
65044;DHT22;51617;48.158;16.464;2023-04-03T14:08:44;7.90;58.60
65044;DHT22;51617;48.158;16.464;2023-04-03T14:11:18;7.90;57.80
65044;DHT22;51617;48.158;16.464;2023-04-03T14:13:44;7.80;57.60
65044;DHT22;51617;48.158;16.464;2023-04-03T14:16:21;7.90;58.60
65044;DHT22;51617;48.158;16.464;2023-04-03T14:18:48;8.10;58.40
65044;DHT22;51617;48.158;16.464;2023-04-03T14:21:15;8.10;58.30
65044;DHT22;51617;48.158;16.464;2023-04-03T14:23:41;8.40;56.90
65044;DHT22;51617;48.158;16.464;2023-04-03T14:26:14;8.50;55.50
65044;DHT22;51617;48.158;16.464;2023-04-03T14:28:42;8.60;55.60
65044;DHT22;51617;48.158;16.464;2023-04-03T14:31:09;8.60;55.40
65044;DHT22;51617;48.158;16.464;2023-04-03T14:33:36;8.40;55.90
65044;DHT22;51617;48.158;16.464;2023-04-03T14:36:05;8.30;56.50
65044;DHT22;51617;48.158;16.464;2023-04-03T14:38:32;8.20;56.30
65044;DHT22;51617;48.158;16.464;2023-04-03T14:40:58;8.10;56.90
65044;DHT22;51617;48.158;16.464;2023-04-03T14:43:23;8.00;58.10
65044;DHT22;51617;48.158;16.464;2023-04-03T14:45:49;7.80;58.10
65044;DHT22;51617;48.158;16.464;2023-04-03T14:48:18;7.60;57.40
65044;DHT22;51617;48.158;16.464;2023-04-03T14:50:44;7.60;57.80
65044;DHT22;51617;48.158;16.464;2023-04-03T14:53:10;7.60;58.20
65044;DHT22;51617;48.158;16.464;2023-04-03T14:55:37;7.70;57.80
65044;DHT22;51617;48.158;16.464;2023-04-03T14:58:02;8.10;57.60
65044;DHT22;51617;48.158;16.464;2023-04-03T15:00:28;8.40;55.90
65044;DHT22;51617;48.158;16.464;2023-04-03T15:02:53;8.50;55.60
65044;DHT22;51617;48.158;16.464;2023-04-03T15:05:19;8.40;56.20
65044;DHT22;51617;48.158;16.464;2023-04-03T15:07:49;8.20;55.60
65044;DHT22;51617;48.158;16.464;2023-04-03T15:12:44;8.10;54.90
65044;DHT22;51617;48.158;16.464;2023-04-03T15:15:10;8.30;55.20
65044;DHT22;51617;48.158;16.464;2023-04-03T15:17:36;8.40;55.10
65044;DHT22;51617;48.158;16.464;2023-04-03T15:20:02;8.60;54.70
65044;DHT22;51617;48.158;16.464;2023-04-03T15:22:28;8.70;54.10
65044;DHT22;51617;48.158;16.464;2023-04-03T15:24:53;8.50;55.10
65044;DHT22;51617;48.158;16.464;2023-04-03T15:27:19;8.20;56.30
65044;DHT22;51617;48.158;16.464;2023-04-03T15:29:44;8.00;57.00
65044;DHT22;51617;48.158;16.464;2023-04-03T15:32:11;8.00;56.60
65044;DHT22;51617;48.158;16.464;2023-04-03T15:34:37;8.00;56.60
65044;DHT22;51617;48.158;16.464;2023-04-03T15:37:03;8.10;56.50
65044;DHT22;51617;48.158;16.464;2023-04-03T15:39:28;8.10;55.80
65044;DHT22;51617;48.158;16.464;2023-04-03T15:41:54;8.10;56.80
65044;DHT22;51617;48.158;16.464;2023-04-03T15:44:20;8.00;56.70
65044;DHT22;51617;48.158;16.464;2023-04-03T15:46:46;7.90;56.60
65044;DHT22;51617;48.158;16.464;2023-04-03T15:49:14;7.80;56.30
65044;DHT22;51617;48.158;16.464;2023-04-03T15:51:40;8.10;56.80
65044;DHT22;51617;48.158;16.464;2023-04-03T15:54:05;8.70;56.20
65044;DHT22;51617;48.158;16.464;2023-04-03T15:56:31;10.10;53.40
65044;DHT22;51617;48.158;16.464;2023-04-03T15:58:57;11.20;50.40
65044;DHT22;51617;48.158;16.464;2023-04-03T16:01:22;10.60;50.80
65044;DHT22;51617;48.158;16.464;2023-04-03T16:03:48;9.80;52.30
65044;DHT22;51617;48.158;16.464;2023-04-03T16:06:14;9.10;53.70
65044;DHT22;51617;48.158;16.464;2023-04-03T16:08:40;8.50;54.30
65044;DHT22;51617;48.158;16.464;2023-04-03T16:11:06;8.20;55.70
65044;DHT22;51617;48.158;16.464;2023-04-03T16:13:32;8.00;56.00
65044;DHT22;51617;48.158;16.464;2023-04-03T16:15:58;7.80;55.60
65044;DHT22;51617;48.158;16.464;2023-04-03T16:18:24;7.70;55.80
65044;DHT22;51617;48.158;16.464;2023-04-03T16:20:50;8.00;56.10
65044;DHT22;51617;48.158;16.464;2023-04-03T16:23:15;9.10;54.90
65044;DHT22;51617;48.158;16.464;2023-04-03T16:25:41;9.30;52.70
65044;DHT22;51617;48.158;16.464;2023-04-03T16:28:11;9.00;53.00
65044;DHT22;51617;48.158;16.464;2023-04-03T16:30:36;8.60;52.90
65044;DHT22;51617;48.158;16.464;2023-04-03T16:33:02;8.20;53.50
65044;DHT22;51617;48.158;16.464;2023-04-03T16:35:28;8.00;54.60
65044;DHT22;51617;48.158;16.464;2023-04-03T16:37:53;7.80;55.20
65044;DHT22;51617;48.158;16.464;2023-04-03T16:40:19;7.70;55.40
65044;DHT22;51617;48.158;16.464;2023-04-03T16:42:45;7.60;55.70
65044;DHT22;51617;48.158;16.464;2023-04-03T16:45:11;7.40;55.80
65044;DHT22;51617;48.158;16.464;2023-04-03T16:47:36;7.20;56.30
65044;DHT22;51617;48.158;16.464;2023-04-03T16:50:02;7.10;57.20
65044;DHT22;51617;48.158;16.464;2023-04-03T16:52:27;7.00;57.50